createdAt,value
2023-03-07T00:00:18.124Z,996.29
2023-03-07T00:01:18.148Z,996.22
2023-03-07T00:02:18.166Z,996.27
2023-03-07T00:03:18.528Z,996.27
2023-03-07T00:05:18.261Z,996.24
2023-03-07T00:06:18.297Z,996.30
2023-03-07T00:07:18.309Z,996.27
2023-03-07T00:08:18.346Z,996.26
2023-03-07T00:09:18.354Z,996.29
2023-03-07T00:10:18.640Z,996.30
2023-03-07T00:11:18.408Z,996.23
2023-03-07T00:13:18.467Z,996.19
2023-03-07T00:14:18.492Z,996.18
2023-03-07T00:15:18.518Z,996.26
2023-03-07T00:17:18.565Z,996.15
2023-03-07T00:18:18.899Z,996.13
2023-03-07T00:19:18.626Z,996.08
2023-03-07T00:20:18.653Z,996.16
2023-03-07T00:21:18.677Z,996.04
2023-03-07T00:22:18.728Z,996.10
2023-03-07T00:23:18.736Z,996.12
2023-03-07T00:24:19.063Z,996.06
2023-03-07T00:25:18.782Z,996.11
2023-03-07T00:27:18.840Z,996.12
2023-03-07T00:28:18.876Z,996.09
2023-03-07T00:29:18.902Z,996.08
2023-03-07T00:31:18.980Z,996.04
2023-03-07T00:32:19.347Z,996.07
2023-03-07T00:33:19.021Z,996.07
2023-03-07T00:34:19.029Z,996.06
2023-03-07T00:35:19.113Z,995.98
2023-03-07T00:36:19.114Z,996.02
2023-03-07T00:37:19.159Z,995.99
2023-03-07T00:38:19.157Z,996.03
2023-03-07T00:39:19.457Z,996.04
2023-03-07T00:41:19.220Z,995.96
2023-03-07T00:42:19.542Z,996.00
2023-03-07T00:43:19.272Z,996.00
2023-03-07T00:44:19.301Z,995.99
2023-03-07T00:45:19.319Z,995.99
2023-03-07T00:47:19.672Z,995.98
2023-03-07T00:48:20.759Z,995.99
2023-03-07T00:49:19.429Z,995.93
2023-03-07T00:50:19.453Z,995.91
2023-03-07T00:51:19.490Z,995.90
2023-03-07T00:52:19.506Z,995.92
2023-03-07T00:54:19.590Z,995.90
2023-03-07T00:55:19.591Z,995.84
2023-03-07T00:56:19.606Z,995.88
2023-03-07T00:57:19.639Z,995.89
2023-03-07T00:58:19.709Z,995.85
2023-03-07T00:59:19.699Z,995.82
2023-03-07T01:00:20.026Z,995.80
2023-03-07T01:01:19.876Z,995.79
2023-03-07T01:02:19.772Z,995.77
2023-03-07T01:04:19.864Z,995.80
2023-03-07T01:05:19.851Z,995.83
2023-03-07T01:06:19.906Z,995.78
2023-03-07T01:07:20.212Z,995.81
2023-03-07T01:08:19.926Z,995.82
2023-03-07T01:09:19.954Z,995.76
2023-03-07T01:10:20.001Z,995.77
2023-03-07T01:11:20.022Z,995.78
2023-03-07T01:12:20.043Z,995.75
2023-03-07T01:13:20.062Z,995.73
2023-03-07T01:14:20.403Z,995.77
2023-03-07T01:16:20.281Z,995.68
2023-03-07T01:17:20.168Z,995.79
2023-03-07T01:18:20.195Z,995.79
2023-03-07T01:19:20.233Z,995.72
2023-03-07T01:20:20.261Z,995.69
2023-03-07T01:21:20.581Z,995.68
2023-03-07T01:22:20.304Z,995.74
2023-03-07T01:23:20.329Z,995.68
2023-03-07T01:24:20.450Z,995.68
2023-03-07T01:26:20.430Z,995.66
2023-03-07T01:27:20.432Z,995.64
2023-03-07T01:28:20.765Z,995.69
2023-03-07T01:29:20.482Z,995.70
2023-03-07T01:31:20.577Z,995.75
2023-03-07T01:32:20.613Z,995.61
2023-03-07T01:33:20.591Z,995.69
2023-03-07T01:34:20.614Z,995.67
2023-03-07T01:35:20.939Z,995.67
2023-03-07T01:36:20.776Z,995.61
2023-03-07T01:37:20.695Z,995.64
2023-03-07T01:38:20.726Z,995.60
2023-03-07T01:39:20.754Z,995.66
2023-03-07T01:41:20.804Z,995.64
2023-03-07T01:42:21.145Z,995.61
2023-03-07T01:44:21.589Z,995.61
2023-03-07T01:46:20.958Z,995.52
2023-03-07T01:47:20.961Z,995.54
2023-03-07T01:49:21.007Z,995.51
2023-03-07T01:50:21.348Z,995.50
2023-03-07T01:51:21.080Z,995.53
2023-03-07T01:52:21.085Z,995.40
2023-03-07T01:53:21.109Z,995.46
2023-03-07T01:54:21.138Z,995.43
2023-03-07T01:55:21.164Z,995.40
2023-03-07T01:56:21.206Z,995.40
2023-03-07T01:57:21.624Z,995.40
2023-03-07T01:58:21.270Z,995.33
2023-03-07T01:59:21.270Z,995.38
2023-03-07T02:00:21.288Z,995.36
2023-03-07T02:01:21.331Z,995.35
2023-03-07T02:02:21.341Z,995.33
2023-03-07T02:03:21.370Z,995.36
2023-03-07T02:04:21.739Z,995.30
2023-03-07T02:05:21.421Z,995.27
2023-03-07T02:06:21.449Z,995.30
2023-03-07T02:07:21.473Z,995.22
2023-03-07T02:08:21.521Z,995.27
2023-03-07T02:09:21.546Z,995.18
2023-03-07T02:10:21.550Z,995.23
2023-03-07T02:11:21.834Z,995.19
2023-03-07T02:12:23.143Z,995.19
2023-03-07T02:13:21.629Z,995.19
2023-03-07T02:14:21.678Z,995.17
2023-03-07T02:15:21.693Z,995.15
2023-03-07T02:16:21.705Z,995.14
2023-03-07T02:17:21.742Z,995.14
2023-03-07T02:18:22.058Z,995.10
2023-03-07T02:19:21.788Z,995.09
2023-03-07T02:20:21.821Z,995.11
2023-03-07T02:21:21.837Z,995.08
2023-03-07T02:22:21.867Z,995.08
2023-03-07T02:23:21.898Z,995.10
2023-03-07T02:24:21.913Z,995.02
2023-03-07T02:25:21.946Z,995.05
2023-03-07T02:26:21.978Z,995.06
2023-03-07T02:27:22.002Z,995.07
2023-03-07T02:28:22.019Z,995.08
2023-03-07T02:29:22.048Z,995.03
2023-03-07T02:30:22.090Z,995.05
2023-03-07T02:32:22.463Z,994.98
2023-03-07T02:33:22.153Z,994.95
2023-03-07T02:34:22.181Z,994.94
2023-03-07T02:35:22.197Z,994.97
2023-03-07T02:36:22.267Z,994.98
2023-03-07T02:37:22.265Z,994.92
2023-03-07T02:38:22.283Z,994.93
2023-03-07T02:39:22.619Z,994.94
2023-03-07T02:40:22.334Z,994.89
2023-03-07T02:41:23.109Z,994.94
2023-03-07T02:42:22.394Z,994.94
2023-03-07T02:43:22.427Z,994.86
2023-03-07T02:44:22.439Z,994.86
2023-03-07T02:45:22.457Z,994.88
2023-03-07T02:46:22.981Z,994.88
2023-03-07T02:47:22.513Z,994.83
2023-03-07T02:48:22.547Z,994.84
2023-03-07T02:49:22.564Z,994.81
2023-03-07T02:51:22.614Z,994.88
2023-03-07T02:52:22.958Z,994.76
2023-03-07T02:53:22.683Z,994.79
2023-03-07T02:54:22.704Z,994.85
2023-03-07T02:55:22.724Z,994.78
2023-03-07T02:56:22.740Z,994.75
2023-03-07T02:57:22.774Z,994.74
2023-03-07T02:58:23.149Z,994.77
2023-03-07T02:59:22.822Z,994.77
2023-03-07T03:00:22.858Z,994.75
2023-03-07T03:01:22.902Z,994.75
2023-03-07T03:02:23.030Z,994.74
2023-03-07T03:03:22.942Z,994.75
2023-03-07T03:05:23.286Z,994.77
2023-03-07T03:06:23.009Z,994.76
2023-03-07T03:07:23.038Z,994.70
2023-03-07T03:08:23.059Z,994.77
2023-03-07T03:09:23.088Z,994.72
2023-03-07T03:10:23.112Z,994.69
2023-03-07T03:11:23.448Z,994.72
2023-03-07T03:12:23.261Z,994.70
2023-03-07T03:13:23.232Z,994.63
2023-03-07T03:14:23.252Z,994.67
2023-03-07T03:15:23.353Z,994.69
2023-03-07T03:16:23.374Z,994.69
2023-03-07T03:17:23.597Z,994.62
2023-03-07T03:18:23.690Z,994.65
2023-03-07T03:19:23.341Z,994.68
2023-03-07T03:20:23.368Z,994.62
2023-03-07T03:21:23.394Z,994.62
2023-03-07T03:22:23.421Z,994.58
2023-03-07T03:23:23.446Z,994.58
2023-03-07T03:24:23.489Z,994.67
2023-03-07T03:25:23.808Z,994.61
2023-03-07T03:28:23.583Z,994.55
2023-03-07T03:29:23.610Z,994.59
2023-03-07T03:30:23.630Z,994.63
2023-03-07T03:31:23.688Z,994.62
2023-03-07T03:32:23.983Z,994.55
2023-03-07T03:33:23.803Z,994.59
2023-03-07T03:34:23.753Z,994.60
2023-03-07T03:35:23.761Z,994.54
2023-03-07T03:36:23.782Z,994.54
2023-03-07T03:38:23.835Z,994.48
2023-03-07T03:40:24.146Z,994.47
2023-03-07T03:41:23.907Z,994.52
2023-03-07T03:42:23.944Z,994.49
2023-03-07T03:43:23.972Z,994.53
2023-03-07T03:44:23.983Z,994.52
2023-03-07T03:45:24.024Z,994.50
2023-03-07T03:46:24.059Z,994.57
2023-03-07T03:47:24.362Z,994.57
2023-03-07T03:49:24.128Z,994.53
2023-03-07T03:50:24.166Z,994.51
2023-03-07T03:51:24.177Z,994.51
2023-03-07T03:52:24.193Z,994.52
2023-03-07T03:53:24.216Z,994.54
2023-03-07T03:54:24.542Z,994.56
2023-03-07T03:55:24.277Z,994.54
2023-03-07T03:56:24.299Z,994.46
2023-03-07T03:57:24.329Z,994.48
2023-03-07T03:58:24.348Z,994.51
2023-03-07T03:59:24.375Z,994.49
2023-03-07T04:00:24.406Z,994.47
2023-03-07T04:01:24.775Z,994.44
2023-03-07T04:02:24.610Z,994.45
2023-03-07T04:03:24.485Z,994.47
2023-03-07T04:04:24.505Z,994.49
2023-03-07T04:05:24.533Z,994.43
2023-03-07T04:07:24.614Z,994.42
2023-03-07T04:08:24.902Z,994.38
2023-03-07T04:09:24.634Z,994.33
2023-03-07T04:10:24.660Z,994.32
2023-03-07T04:11:24.686Z,994.30
2023-03-07T04:12:24.758Z,994.29
2023-03-07T04:13:24.726Z,994.24
2023-03-07T04:14:24.755Z,994.23
2023-03-07T04:15:25.094Z,994.30
2023-03-07T04:16:24.964Z,994.22
2023-03-07T04:17:24.832Z,994.18
2023-03-07T04:18:24.882Z,994.20
2023-03-07T04:19:24.900Z,994.16
2023-03-07T04:21:24.938Z,994.15
2023-03-07T04:22:25.286Z,994.08
2023-03-07T04:23:25.012Z,994.10
2023-03-07T04:24:25.011Z,994.16
2023-03-07T04:25:25.071Z,994.10
2023-03-07T04:26:25.095Z,994.07
2023-03-07T04:27:25.091Z,994.08
2023-03-07T04:28:25.112Z,994.01
2023-03-07T04:29:25.443Z,994.03
2023-03-07T04:30:25.171Z,994.06
2023-03-07T04:31:25.243Z,993.97
2023-03-07T04:32:25.280Z,993.95
2023-03-07T04:33:25.255Z,993.96
2023-03-07T04:34:25.291Z,993.98
2023-03-07T04:35:25.310Z,993.92
2023-03-07T04:36:25.570Z,993.92
2023-03-07T04:38:25.385Z,993.94
2023-03-07T04:39:25.428Z,993.89
2023-03-07T04:40:25.419Z,993.91
2023-03-07T04:41:25.454Z,993.90
2023-03-07T04:42:25.476Z,993.92
2023-03-07T04:43:25.802Z,993.90
2023-03-07T04:44:25.532Z,993.87
2023-03-07T04:45:25.554Z,993.90
2023-03-07T04:46:25.580Z,993.87
2023-03-07T04:47:25.602Z,993.84
2023-03-07T04:48:25.637Z,993.85
2023-03-07T04:49:25.653Z,993.87
2023-03-07T04:50:25.987Z,993.87
2023-03-07T04:51:25.816Z,993.85
2023-03-07T04:52:25.728Z,993.85
2023-03-07T04:53:25.760Z,993.83
2023-03-07T04:54:25.917Z,993.84
2023-03-07T04:55:25.856Z,993.81
2023-03-07T04:56:25.833Z,993.87
2023-03-07T04:57:26.201Z,993.78
2023-03-07T04:58:25.902Z,993.81
2023-03-07T04:59:25.909Z,993.85
2023-03-07T05:00:25.947Z,993.81
2023-03-07T05:01:25.998Z,993.81
2023-03-07T05:02:26.005Z,993.77
2023-03-07T05:03:26.012Z,993.76
2023-03-07T05:04:26.384Z,993.76
2023-03-07T05:05:26.067Z,993.73
2023-03-07T05:06:26.107Z,993.79
2023-03-07T05:07:26.176Z,993.78
2023-03-07T05:08:26.143Z,993.75
2023-03-07T05:09:26.187Z,993.71
2023-03-07T05:10:26.200Z,993.70
2023-03-07T05:11:26.547Z,993.73
2023-03-07T05:12:26.250Z,993.71
2023-03-07T05:13:26.281Z,993.63
2023-03-07T05:14:26.295Z,993.67
2023-03-07T05:15:26.324Z,993.63
2023-03-07T05:16:26.363Z,993.65
2023-03-07T05:17:26.624Z,993.67
2023-03-07T05:18:26.412Z,993.65
2023-03-07T05:20:26.459Z,993.62
2023-03-07T05:21:26.590Z,993.59
2023-03-07T05:22:27.317Z,993.61
2023-03-07T05:23:26.826Z,993.63
2023-03-07T05:24:26.550Z,993.58
2023-03-07T05:25:26.576Z,993.55
2023-03-07T05:26:26.609Z,993.61
2023-03-07T05:27:26.653Z,993.57
2023-03-07T05:28:26.652Z,993.56
2023-03-07T05:29:26.992Z,993.61
2023-03-07T05:30:26.757Z,993.60
2023-03-07T05:31:26.790Z,993.57
2023-03-07T05:32:26.814Z,993.53
2023-03-07T05:33:26.827Z,993.50
2023-03-07T05:34:26.817Z,993.54
2023-03-07T05:35:26.963Z,993.56
2023-03-07T05:37:27.342Z,993.54
2023-03-07T05:38:26.932Z,993.57
2023-03-07T05:39:26.945Z,993.52
2023-03-07T05:40:26.966Z,993.51
2023-03-07T05:41:26.995Z,993.51
2023-03-07T05:43:27.159Z,993.54
2023-03-07T05:44:27.397Z,993.49
2023-03-07T05:45:27.089Z,993.54
2023-03-07T05:46:27.166Z,993.45
2023-03-07T05:47:27.150Z,993.49
2023-03-07T05:48:27.170Z,993.55
2023-03-07T05:49:27.213Z,993.46
2023-03-07T05:50:27.539Z,993.45
2023-03-07T05:51:27.252Z,993.51
2023-03-07T05:52:27.284Z,993.51
2023-03-07T05:53:27.325Z,993.49
2023-03-07T05:54:27.336Z,993.55
2023-03-07T05:55:27.366Z,993.51
2023-03-07T05:56:27.425Z,993.52
2023-03-07T05:57:27.651Z,993.55
2023-03-07T05:58:27.427Z,993.51
2023-03-07T05:59:27.824Z,993.46
2023-03-07T06:00:27.482Z,993.46
2023-03-07T06:01:27.511Z,993.42
2023-03-07T06:02:27.562Z,993.44
2023-03-07T06:03:27.631Z,993.33
2023-03-07T06:04:27.889Z,993.34
2023-03-07T06:05:27.611Z,993.38
2023-03-07T06:06:27.741Z,993.38
2023-03-07T06:07:27.793Z,993.41
2023-03-07T06:08:27.800Z,993.31
2023-03-07T06:09:27.798Z,993.42
2023-03-07T06:10:27.894Z,993.41
2023-03-07T06:11:28.081Z,993.38
2023-03-07T06:12:27.792Z,993.44
2023-03-07T06:13:27.819Z,993.36
2023-03-07T06:14:27.840Z,993.40
2023-03-07T06:15:27.892Z,993.43
2023-03-07T06:16:27.995Z,993.43
2023-03-07T06:17:28.025Z,993.47
2023-03-07T06:18:28.261Z,993.38
2023-03-07T06:19:27.980Z,993.45
2023-03-07T06:20:27.994Z,993.43
2023-03-07T06:21:28.017Z,993.39
2023-03-07T06:22:28.070Z,993.41
2023-03-07T06:23:28.074Z,993.44
2023-03-07T06:24:28.114Z,993.40
2023-03-07T06:25:28.435Z,993.40
2023-03-07T06:26:28.146Z,993.40
2023-03-07T06:27:28.176Z,993.37
2023-03-07T06:28:28.203Z,993.38
2023-03-07T06:30:28.260Z,993.36
2023-03-07T06:31:28.388Z,993.29
2023-03-07T06:32:28.580Z,993.35
2023-03-07T06:33:28.333Z,993.31
2023-03-07T06:34:28.371Z,993.30
2023-03-07T06:35:28.387Z,993.27
2023-03-07T06:36:28.413Z,993.34
2023-03-07T06:37:28.441Z,993.38
2023-03-07T06:38:28.462Z,993.29
2023-03-07T06:39:31.266Z,993.34
2023-03-07T06:40:28.525Z,993.39
2023-03-07T06:41:28.538Z,993.31
2023-03-07T06:42:28.555Z,993.33
2023-03-07T06:43:28.580Z,993.32
2023-03-07T06:44:28.615Z,993.35
2023-03-07T06:46:28.980Z,993.36
2023-03-07T06:47:28.756Z,993.31
2023-03-07T06:48:28.756Z,993.32
2023-03-07T06:49:28.741Z,993.32
2023-03-07T06:51:28.789Z,993.29
2023-03-07T06:52:28.815Z,993.33
2023-03-07T06:53:29.142Z,993.30
2023-03-07T06:54:28.876Z,993.27
2023-03-07T06:55:28.899Z,993.21
2023-03-07T06:56:28.914Z,993.23
2023-03-07T06:57:28.946Z,993.24
2023-03-07T06:58:28.971Z,993.28
2023-03-07T07:00:30.338Z,993.23
2023-03-07T07:01:29.123Z,993.23
2023-03-07T07:02:29.316Z,993.23
2023-03-07T07:03:29.131Z,993.28
2023-03-07T07:04:29.124Z,993.22
2023-03-07T07:05:29.166Z,993.18
2023-03-07T07:06:29.178Z,993.18
2023-03-07T07:07:29.513Z,993.17
2023-03-07T07:08:29.245Z,993.16
2023-03-07T07:09:29.262Z,993.22
2023-03-07T07:10:29.295Z,993.22
2023-03-07T07:11:29.306Z,993.19
2023-03-07T07:12:29.330Z,993.22
2023-03-07T07:13:29.368Z,993.19
2023-03-07T07:14:29.699Z,993.23
2023-03-07T07:15:29.412Z,993.22
2023-03-07T07:16:29.581Z,993.22
2023-03-07T07:17:29.470Z,993.21
2023-03-07T07:18:29.481Z,993.25
2023-03-07T07:19:29.537Z,993.20
2023-03-07T07:20:29.843Z,993.19
2023-03-07T07:21:29.672Z,993.18
2023-03-07T07:22:29.592Z,993.17
2023-03-07T07:23:29.616Z,993.15
2023-03-07T07:24:29.659Z,993.19
2023-03-07T07:25:29.693Z,993.17
2023-03-07T07:26:30.006Z,993.16
2023-03-07T07:27:29.706Z,993.13
2023-03-07T07:28:29.752Z,993.11
2023-03-07T07:29:29.761Z,993.19
2023-03-07T07:30:29.794Z,993.15
2023-03-07T07:31:29.836Z,993.14
2023-03-07T07:32:30.346Z,993.16
2023-03-07T07:33:29.905Z,993.13
2023-03-07T07:34:29.892Z,993.10
2023-03-07T07:36:29.962Z,993.12
2023-03-07T07:37:29.974Z,993.11
2023-03-07T07:38:30.012Z,993.19
2023-03-07T07:39:30.327Z,993.21
2023-03-07T07:40:30.060Z,993.17
2023-03-07T07:41:30.071Z,993.24
2023-03-07T07:42:32.205Z,993.15
2023-03-07T07:43:30.135Z,993.23
2023-03-07T07:44:30.163Z,993.21
2023-03-07T07:45:30.177Z,993.16
2023-03-07T07:46:30.511Z,993.21
2023-03-07T07:47:30.235Z,993.19
2023-03-07T07:48:30.259Z,993.24
2023-03-07T07:49:30.297Z,993.23
2023-03-07T07:50:30.311Z,993.24
2023-03-07T07:51:30.348Z,993.23
2023-03-07T07:52:30.400Z,993.27
2023-03-07T07:53:30.693Z,993.32
2023-03-07T07:54:30.481Z,993.22
2023-03-07T07:55:30.449Z,993.22
2023-03-07T07:56:30.465Z,993.29
2023-03-07T07:57:30.498Z,993.24
2023-03-07T07:58:30.515Z,993.23
2023-03-07T07:59:30.541Z,993.17
2023-03-07T08:00:30.886Z,993.25
2023-03-07T08:01:30.599Z,993.22
2023-03-07T08:02:30.707Z,993.26
2023-03-07T08:04:30.671Z,993.26
2023-03-07T08:05:30.851Z,993.21
2023-03-07T08:06:30.728Z,993.20
2023-03-07T08:07:31.073Z,993.27
2023-03-07T08:08:30.991Z,993.27
2023-03-07T08:09:30.853Z,993.35
2023-03-07T08:10:30.835Z,993.27
2023-03-07T08:11:30.862Z,993.31
2023-03-07T08:12:30.896Z,993.28
2023-03-07T08:14:31.232Z,993.36
2023-03-07T08:15:30.982Z,993.25
2023-03-07T08:16:30.985Z,993.33
2023-03-07T08:17:31.048Z,993.26
2023-03-07T08:19:31.068Z,993.33
2023-03-07T08:20:31.108Z,993.30
2023-03-07T08:21:31.122Z,993.26
2023-03-07T08:23:31.171Z,993.32
2023-03-07T08:24:40.181Z,993.31
2023-03-07T08:25:31.220Z,993.32
2023-03-07T08:26:31.247Z,993.25
2023-03-07T08:27:31.573Z,993.32
2023-03-07T08:28:31.299Z,993.34
2023-03-07T08:29:31.342Z,993.24
2023-03-07T08:30:31.349Z,993.28
2023-03-07T08:31:31.488Z,993.25
2023-03-07T08:32:31.468Z,993.28
2023-03-07T08:33:31.428Z,993.23
2023-03-07T08:34:31.464Z,993.25
2023-03-07T08:35:31.621Z,993.23
2023-03-07T08:36:31.521Z,993.24
2023-03-07T08:37:31.534Z,993.22
2023-03-07T08:38:31.565Z,993.22
2023-03-07T08:39:31.595Z,993.24
2023-03-07T08:40:31.988Z,993.23
2023-03-07T08:41:31.641Z,993.19
2023-03-07T08:42:31.703Z,993.24
2023-03-07T08:43:31.787Z,993.16
2023-03-07T08:44:31.707Z,993.16
2023-03-07T08:45:31.746Z,993.21
2023-03-07T08:46:31.845Z,993.22
2023-03-07T08:47:31.788Z,993.17
2023-03-07T08:48:31.824Z,993.23
2023-03-07T08:49:31.848Z,993.16
2023-03-07T08:50:31.878Z,993.12
2023-03-07T08:51:31.886Z,993.14
2023-03-07T08:52:31.922Z,993.10
2023-03-07T08:53:31.940Z,993.10
2023-03-07T08:54:31.966Z,993.12
2023-03-07T08:55:32.005Z,993.09
2023-03-07T08:56:32.044Z,993.01
2023-03-07T08:57:32.060Z,993.08
2023-03-07T08:58:32.371Z,993.12
2023-03-07T08:59:32.102Z,992.98
2023-03-07T09:00:32.129Z,993.01
2023-03-07T09:01:32.185Z,993.09
2023-03-07T09:02:32.187Z,993.11
2023-03-07T09:03:32.222Z,993.09
2023-03-07T09:04:32.297Z,993.15
2023-03-07T09:05:32.584Z,993.07
2023-03-07T09:06:32.307Z,993.09
2023-03-07T09:07:32.326Z,993.13
2023-03-07T09:09:32.366Z,993.12
2023-03-07T09:11:32.405Z,993.07
2023-03-07T09:12:32.770Z,993.15
2023-03-07T09:13:36.108Z,993.16
2023-03-07T09:14:32.489Z,993.19
2023-03-07T09:15:32.521Z,993.26
2023-03-07T09:17:32.583Z,993.21
2023-03-07T09:18:32.605Z,993.27
2023-03-07T09:19:32.922Z,993.20
2023-03-07T09:20:32.647Z,993.23
2023-03-07T09:21:32.673Z,993.18
2023-03-07T09:22:33.064Z,993.18
2023-03-07T09:23:32.736Z,993.16
2023-03-07T09:24:32.759Z,993.16
2023-03-07T09:25:32.786Z,993.14
2023-03-07T09:26:33.097Z,993.21
2023-03-07T09:28:32.876Z,993.18
2023-03-07T09:29:32.885Z,993.31
2023-03-07T09:30:32.909Z,993.30
2023-03-07T09:31:32.989Z,993.22
2023-03-07T09:32:33.005Z,993.24
2023-03-07T09:33:33.294Z,993.22
2023-03-07T09:34:33.024Z,993.21
2023-03-07T09:35:33.117Z,993.20
2023-03-07T09:38:33.118Z,993.29
2023-03-07T09:39:33.156Z,993.24
2023-03-07T09:40:33.469Z,993.20
2023-03-07T09:42:33.213Z,993.10
2023-03-07T09:44:33.314Z,993.09
2023-03-07T09:45:33.338Z,993.14
2023-03-07T09:46:33.321Z,993.22
2023-03-07T09:47:33.656Z,993.17
2023-03-07T09:49:33.418Z,993.15
2023-03-07T09:50:33.430Z,993.10
2023-03-07T09:51:33.454Z,993.22
2023-03-07T09:52:33.484Z,993.10
2023-03-07T09:53:33.500Z,993.10
2023-03-07T09:54:33.530Z,993.16
2023-03-07T09:55:33.613Z,993.13
2023-03-07T09:56:33.588Z,993.16
2023-03-07T09:58:33.645Z,993.12
2023-03-07T09:59:33.674Z,993.07
2023-03-07T10:00:34.026Z,993.10
2023-03-07T10:01:33.708Z,993.09
2023-03-07T10:02:33.750Z,993.07
2023-03-07T10:03:33.851Z,993.08
2023-03-07T10:04:33.816Z,993.01
2023-03-07T10:05:33.817Z,993.12
2023-03-07T10:06:34.091Z,992.98
2023-03-07T10:08:33.903Z,993.00
2023-03-07T10:09:33.918Z,993.03
2023-03-07T10:10:33.947Z,992.99
2023-03-07T10:12:34.299Z,993.01
2023-03-07T10:13:34.027Z,992.96
2023-03-07T10:14:34.100Z,992.97
2023-03-07T10:15:34.195Z,993.04
2023-03-07T10:16:34.238Z,993.08
2023-03-07T10:17:34.137Z,993.03
2023-03-07T10:18:34.453Z,993.04
2023-03-07T10:19:34.180Z,992.98
2023-03-07T10:20:34.206Z,993.09
2023-03-07T10:21:34.271Z,993.13
2023-03-07T10:22:34.269Z,993.02
2023-03-07T10:23:34.285Z,993.06
2023-03-07T10:24:34.321Z,993.08
2023-03-07T10:25:34.643Z,993.03
2023-03-07T10:26:34.364Z,992.97
2023-03-07T10:27:34.392Z,993.08
2023-03-07T10:28:34.414Z,993.08
2023-03-07T10:29:34.463Z,993.08
2023-03-07T10:31:34.865Z,993.09
2023-03-07T10:32:34.558Z,993.10
2023-03-07T10:33:34.593Z,993.01
2023-03-07T10:34:34.571Z,993.09
2023-03-07T10:35:34.602Z,993.10
2023-03-07T10:36:34.706Z,992.99
2023-03-07T10:37:34.648Z,993.06
2023-03-07T10:38:35.001Z,993.07
2023-03-07T10:40:34.749Z,993.13
2023-03-07T10:41:34.754Z,993.07
2023-03-07T10:42:34.781Z,993.10
2023-03-07T10:43:34.794Z,993.10
2023-03-07T10:44:34.827Z,993.11
2023-03-07T10:45:35.182Z,993.10
2023-03-07T10:46:36.635Z,993.13
2023-03-07T10:47:34.938Z,993.17
2023-03-07T10:49:34.977Z,993.08
2023-03-07T10:50:34.975Z,993.11
2023-03-07T10:51:35.021Z,993.12
2023-03-07T10:52:35.039Z,993.14
2023-03-07T10:53:35.063Z,993.07
2023-03-07T10:54:35.101Z,993.14
2023-03-07T10:55:35.136Z,993.12
2023-03-07T10:56:35.129Z,993.15
2023-03-07T10:57:35.497Z,993.08
2023-03-07T10:58:35.482Z,993.09
2023-03-07T10:59:35.208Z,993.07
2023-03-07T11:00:35.238Z,993.13
2023-03-07T11:01:35.299Z,993.09
2023-03-07T11:02:35.293Z,993.07
2023-03-07T11:03:51.070Z,993.13
2023-03-07T11:04:35.370Z,993.00
2023-03-07T11:05:35.389Z,993.11
2023-03-07T11:07:35.431Z,993.23
2023-03-07T11:08:35.439Z,993.23
2023-03-07T11:10:35.745Z,993.22
2023-03-07T11:11:35.518Z,993.33
2023-03-07T11:12:35.554Z,993.39
2023-03-07T11:13:35.591Z,993.39
2023-03-07T11:14:35.617Z,993.40
2023-03-07T11:15:35.681Z,993.37
2023-03-07T11:16:36.059Z,993.36
2023-03-07T11:17:35.683Z,993.34
2023-03-07T11:18:35.700Z,993.37
2023-03-07T11:19:35.724Z,993.37
2023-03-07T11:20:35.758Z,993.31
2023-03-07T11:21:35.813Z,993.38
2023-03-07T11:22:35.829Z,993.39
2023-03-07T11:23:35.828Z,993.40
2023-03-07T11:24:35.854Z,993.45
2023-03-07T11:25:35.873Z,993.38
2023-03-07T11:26:35.921Z,993.40
2023-03-07T11:27:35.986Z,993.49
2023-03-07T11:28:35.960Z,993.46
2023-03-07T11:29:36.294Z,993.46
2023-03-07T11:30:36.008Z,993.44
2023-03-07T11:31:36.051Z,993.38
2023-03-07T11:32:36.195Z,993.40
2023-03-07T11:33:36.097Z,993.41
2023-03-07T11:34:36.189Z,993.47
2023-03-07T11:35:36.189Z,993.44
2023-03-07T11:36:36.531Z,993.41
2023-03-07T11:37:36.249Z,993.47
2023-03-07T11:38:36.216Z,993.48
2023-03-07T11:39:36.237Z,993.45
2023-03-07T11:40:36.263Z,993.45
2023-03-07T11:41:36.306Z,993.45
2023-03-07T11:42:36.326Z,993.43
2023-03-07T11:43:36.668Z,993.45
2023-03-07T11:44:36.362Z,993.42
2023-03-07T11:45:36.411Z,993.44
2023-03-07T11:46:36.453Z,993.45
2023-03-07T11:47:36.449Z,993.46
2023-03-07T11:48:36.478Z,993.44
2023-03-07T11:49:36.493Z,993.43
2023-03-07T11:50:36.824Z,993.46
2023-03-07T11:51:36.559Z,993.44
2023-03-07T11:52:36.575Z,993.43
2023-03-07T11:54:36.668Z,993.46
2023-03-07T11:55:36.674Z,993.44
2023-03-07T11:56:36.703Z,993.43
2023-03-07T11:57:37.009Z,993.44
2023-03-07T11:58:36.746Z,993.40
2023-03-07T11:59:36.773Z,993.40
2023-03-07T12:00:36.794Z,993.46
2023-03-07T12:01:36.819Z,993.42
2023-03-07T12:02:36.938Z,993.41
2023-03-07T12:03:36.882Z,993.50
2023-03-07T12:04:37.199Z,993.44
2023-03-07T12:05:36.967Z,993.47
2023-03-07T12:06:36.952Z,993.43
2023-03-07T12:08:36.992Z,993.39
2023-03-07T12:10:37.080Z,993.43
2023-03-07T12:11:37.321Z,993.41
2023-03-07T12:12:37.110Z,993.41
2023-03-07T12:14:37.145Z,993.44
2023-03-07T12:15:37.180Z,993.46
2023-03-07T12:16:37.240Z,993.45
2023-03-07T12:17:37.252Z,993.36
2023-03-07T12:18:37.567Z,993.36
2023-03-07T12:19:37.284Z,993.38
2023-03-07T12:20:37.314Z,993.42
2023-03-07T12:21:37.336Z,993.39
2023-03-07T12:22:37.410Z,993.36
2023-03-07T12:23:37.381Z,993.40
2023-03-07T12:24:37.663Z,993.41
2023-03-07T12:25:37.442Z,993.38
2023-03-07T12:26:37.482Z,993.40
2023-03-07T12:27:37.506Z,993.39
2023-03-07T12:28:37.515Z,993.40
2023-03-07T12:29:37.548Z,993.38
2023-03-07T12:30:37.868Z,993.39
2023-03-07T12:31:37.796Z,993.38
2023-03-07T12:32:37.767Z,993.34
2023-03-07T12:33:37.801Z,993.40
2023-03-07T12:34:37.675Z,993.39
2023-03-07T12:35:37.739Z,993.39
2023-03-07T12:36:37.845Z,993.39
2023-03-07T12:37:37.745Z,993.35
2023-03-07T12:38:37.776Z,993.38
2023-03-07T12:39:37.803Z,993.38
2023-03-07T12:40:37.822Z,993.38
2023-03-07T12:41:37.851Z,993.37
2023-03-07T12:42:38.208Z,993.34
2023-03-07T12:43:37.901Z,993.33
2023-03-07T12:44:37.941Z,993.35
2023-03-07T12:45:38.072Z,993.35
2023-03-07T12:46:37.993Z,993.37
2023-03-07T12:47:38.018Z,993.40
2023-03-07T12:48:38.042Z,993.38
2023-03-07T12:49:49.141Z,993.35
2023-03-07T12:50:38.085Z,993.39
2023-03-07T12:52:38.155Z,993.38
2023-03-07T12:53:38.204Z,993.34
2023-03-07T12:56:38.544Z,993.35
2023-03-07T12:57:38.272Z,993.32
2023-03-07T12:58:38.353Z,993.32
2023-03-07T12:59:38.388Z,993.30
2023-03-07T13:00:38.354Z,993.27
2023-03-07T13:01:38.413Z,993.26
2023-03-07T13:02:40.768Z,993.29
2023-03-07T13:03:38.738Z,993.29
2023-03-07T13:04:38.584Z,993.26
2023-03-07T13:05:38.494Z,993.26
2023-03-07T13:06:38.513Z,993.26
2023-03-07T13:07:38.535Z,993.26
2023-03-07T13:08:38.555Z,993.22
2023-03-07T13:09:38.598Z,993.26
2023-03-07T13:10:38.909Z,993.25
2023-03-07T13:11:38.739Z,993.29
2023-03-07T13:12:38.668Z,993.27
2023-03-07T13:13:38.693Z,993.30
2023-03-07T13:14:38.738Z,993.27
2023-03-07T13:15:38.740Z,993.26
2023-03-07T13:16:38.826Z,993.31
2023-03-07T13:17:39.085Z,993.29
2023-03-07T13:18:38.817Z,993.27
2023-03-07T13:19:38.840Z,993.31
2023-03-07T13:20:38.877Z,993.34
2023-03-07T13:21:38.906Z,993.28
2023-03-07T13:22:38.932Z,993.26
2023-03-07T13:23:38.942Z,993.28
2023-03-07T13:24:39.378Z,993.29
2023-03-07T13:25:38.996Z,993.31
2023-03-07T13:26:39.028Z,993.31
2023-03-07T13:27:39.062Z,993.29
2023-03-07T13:28:39.098Z,993.31
2023-03-07T13:29:39.100Z,993.30
2023-03-07T13:30:39.182Z,993.32
2023-03-07T13:31:39.466Z,993.34